Stillmore, Georgia
Current Conditions -  °F | °C
As of 6:55 AM on Monday 24 Nov 2014 (Local Time) from KVDI Reporting Station
Light Rain Light Rain  
Wind Chill: 70°   Ceiling: 500
Heat Index: 70°   Visibility: 4mi
Dew Point: 70°   Wind: 7mph
Humidity: 100%   Direction: 230°SW
Pressure: 29.84"   Gusts: NA
Location:  32.44°N, 82.22°W
Report Text: KVDI 241155Z AUTO 23006KT 4SM -RA BKN005 BKN011 OVC017 21/21 A2984 RMK AO2
Loading
Personal Weather Stations






























Interactive Weather Map New forecast layout! Learn more

10-Day Weather Forecast

Advertisements
Track Severe Weather on mobile